createdAt,value
2022-11-18T00:01:39.275Z,99656.81
2022-11-18T00:04:05.928Z,99668.28
2022-11-18T00:06:32.632Z,99672.94
2022-11-18T00:09:00.565Z,99668.63
2022-11-18T00:11:45.943Z,99673.28
2022-11-18T00:14:23.215Z,99681.09
2022-11-18T00:17:02.325Z,99688.06
2022-11-18T00:19:31.255Z,99687.31
2022-11-18T00:21:58.187Z,99687.13
2022-11-18T00:24:25.805Z,99700.06
2022-11-18T00:26:53.024Z,99697.13
2022-11-18T00:29:21.300Z,99707.41
2022-11-18T00:31:48.693Z,99710.88
2022-11-18T00:34:16.879Z,99727.00
2022-11-18T00:36:44.990Z,99723.53
2022-11-18T00:39:13.300Z,99717.38
2022-11-18T00:41:58.689Z,99717.38
2022-11-18T00:44:25.471Z,99727.19
2022-11-18T00:46:52.549Z,99713.06
2022-11-18T00:49:19.742Z,99725.53
2022-11-18T00:51:46.846Z,99717.56
2022-11-18T00:54:13.478Z,99725.03
2022-11-18T00:56:40.436Z,99727.53
2022-11-18T00:59:07.519Z,99730.19
2022-11-18T01:01:34.998Z,99730.19
2022-11-18T01:04:02.350Z,99719.13
2022-11-18T01:06:29.927Z,99734.19
2022-11-18T01:08:57.042Z,99737.22
2022-11-18T01:11:42.187Z,99742.53
2022-11-18T01:14:08.762Z,99758.28
2022-11-18T01:16:35.259Z,99752.50
2022-11-18T01:19:01.915Z,99756.81
2022-11-18T01:21:29.421Z,99759.28
2022-11-18T01:23:56.409Z,99762.97
2022-11-18T01:26:23.471Z,99768.47
2022-11-18T01:28:50.488Z,99769.16
2022-11-18T01:31:19.656Z,99778.78
2022-11-18T01:33:46.953Z,99785.75
2022-11-18T01:36:19.323Z,99781.59
2022-11-18T01:38:47.085Z,99778.94
2022-11-18T01:41:14.441Z,99792.88
2022-11-18T01:44:27.347Z,99793.06
2022-11-18T01:46:54.330Z,99801.03
2022-11-18T01:49:20.859Z,99797.53
2022-11-18T01:51:58.445Z,99795.72
2022-11-18T01:54:34.296Z,99785.81
2022-11-18T01:57:02.676Z,99804.03
2022-11-18T01:59:35.979Z,99796.44
2022-11-18T02:02:08.290Z,99806.69
2022-11-18T02:04:35.627Z,99798.44
2022-11-18T02:07:02.946Z,99799.44
2022-11-18T02:09:29.983Z,99796.94
2022-11-18T02:11:56.755Z,99805.84
2022-11-18T02:14:29.943Z,99807.06
2022-11-18T02:16:59.173Z,99814.66
2022-11-18T02:19:41.298Z,99811.16
2022-11-18T02:22:20.141Z,99816.47
2022-11-18T02:25:29.135Z,99820.13
2022-11-18T02:28:42.066Z,99816.84
2022-11-18T02:31:11.607Z,99823.00
2022-11-18T02:34:03.940Z,99826.66
2022-11-18T02:36:57.968Z,99831.13
2022-11-18T02:39:36.262Z,99832.97
2022-11-18T02:42:08.517Z,99831.31
2022-11-18T02:44:38.759Z,99832.66
2022-11-18T02:47:08.591Z,99831.31
2022-11-18T02:49:39.701Z,99841.94
2022-11-18T02:52:09.976Z,99835.97
2022-11-18T02:54:41.469Z,99844.75
2022-11-18T02:57:09.344Z,99844.75
2022-11-18T02:59:36.413Z,99844.94
2022-11-18T03:02:03.256Z,99843.09
2022-11-18T03:04:32.051Z,99846.75
2022-11-18T03:07:25.579Z,99852.91
2022-11-18T03:09:53.560Z,99851.41
2022-11-18T03:12:28.923Z,99852.91
2022-11-18T03:15:20.514Z,99854.91
2022-11-18T03:18:20.929Z,99847.47
2022-11-18T03:20:50.607Z,99858.56
2022-11-18T03:23:17.062Z,99867.34
2022-11-18T03:26:02.606Z,99868.34
2022-11-18T03:28:44.561Z,99871.00
2022-11-18T03:31:19.038Z,99871.53
2022-11-18T03:33:50.486Z,99878.50
2022-11-18T03:36:21.455Z,99881.16
2022-11-18T03:38:55.548Z,99884.16
2022-11-18T03:41:26.552Z,99886.66
2022-11-18T03:44:08.357Z,99893.78
2022-11-18T03:46:41.326Z,99889.47
2022-11-18T03:49:12.015Z,99896.78
2022-11-18T03:52:10.970Z,99901.09
2022-11-18T03:54:40.400Z,99915.19
2022-11-18T03:57:13.966Z,99909.06
2022-11-18T03:59:56.305Z,99904.09
2022-11-18T04:02:29.801Z,99906.75
2022-11-18T04:04:59.392Z,99913.72
2022-11-18T04:07:47.975Z,99920.19
2022-11-18T04:10:20.300Z,99919.69
2022-11-18T04:13:33.259Z,99932.63
2022-11-18T04:16:00.536Z,99925.00
2022-11-18T04:18:28.232Z,99927.19
2022-11-18T04:20:55.746Z,99940.59
2022-11-18T04:23:22.735Z,99938.28
2022-11-18T04:25:49.282Z,99935.44
2022-11-18T04:28:15.808Z,99944.91
2022-11-18T04:30:42.342Z,99943.25
2022-11-18T04:33:09.155Z,99948.09
2022-11-18T04:35:35.712Z,99958.38
2022-11-18T04:38:03.067Z,99962.84
2022-11-18T04:40:31.740Z,99961.19
2022-11-18T04:42:58.244Z,99958.88
2022-11-18T04:45:24.794Z,99962.38
2022-11-18T04:47:51.823Z,99965.88
2022-11-18T04:50:18.351Z,99974.66
2022-11-18T04:52:45.817Z,99979.16
2022-11-18T04:55:12.392Z,99979.16
2022-11-18T04:57:38.966Z,99981.13
2022-11-18T05:00:06.767Z,99980.13
2022-11-18T05:02:33.752Z,99983.78
2022-11-18T05:05:00.786Z,99986.44
2022-11-18T05:07:27.825Z,99980.63
2022-11-18T05:09:54.833Z,99982.13
2022-11-18T05:12:39.639Z,99991.91
2022-11-18T05:15:07.860Z,99992.75
2022-11-18T05:17:36.042Z,100002.53
2022-11-18T05:20:02.632Z,100004.38
2022-11-18T05:22:29.192Z,100003.69
2022-11-18T05:24:56.246Z,99993.91
2022-11-18T05:27:23.260Z,100005.84
2022-11-18T05:29:50.433Z,100015.31
2022-11-18T05:32:17.065Z,100016.16
2022-11-18T05:34:43.698Z,100017.97
2022-11-18T05:37:10.941Z,100018.97
2022-11-18T05:39:37.713Z,100028.75
2022-11-18T05:42:23.246Z,100027.09
2022-11-18T05:44:56.380Z,100023.97
2022-11-18T05:47:25.740Z,100031.94
2022-11-18T05:49:52.783Z,100037.03
2022-11-18T05:52:19.818Z,100036.22
2022-11-18T05:54:49.814Z,100039.69
2022-11-18T05:57:16.826Z,100046.84
2022-11-18T05:59:43.797Z,100044.38
2022-11-18T06:02:19.958Z,100041.84
2022-11-18T06:04:53.784Z,100045.38
2022-11-18T06:07:25.805Z,100057.78
2022-11-18T06:09:59.781Z,100055.13
2022-11-18T06:12:34.541Z,100052.94
2022-11-18T06:15:06.994Z,100049.31
2022-11-18T06:17:45.424Z,100055.28
2022-11-18T06:20:12.538Z,100067.72
2022-11-18T06:22:44.966Z,100061.75
2022-11-18T06:25:14.046Z,100065.75
2022-11-18T06:27:41.620Z,100068.28
2022-11-18T06:30:08.961Z,100070.94
2022-11-18T06:32:35.577Z,100074.41
2022-11-18T06:35:02.143Z,100079.72
2022-11-18T06:37:28.666Z,100083.84
2022-11-18T06:39:55.204Z,100095.31
2022-11-18T06:42:40.315Z,100096.13
2022-11-18T06:45:07.716Z,100101.59
2022-11-18T06:47:34.274Z,100101.44
2022-11-18T06:50:00.854Z,100110.25
2022-11-18T06:52:27.729Z,100112.91
2022-11-18T06:54:54.307Z,100117.38
2022-11-18T06:57:20.867Z,100111.59
2022-11-18T06:59:47.381Z,100115.56
2022-11-18T07:02:14.174Z,100120.88
2022-11-18T07:04:41.351Z,100127.16
2022-11-18T07:07:11.229Z,100131.34
2022-11-18T07:09:37.943Z,100139.13
2022-11-18T07:12:05.656Z,100139.81
2022-11-18T07:14:32.248Z,100141.31
2022-11-18T07:16:58.832Z,100139.97
2022-11-18T07:19:25.408Z,100153.75
2022-11-18T07:21:52.489Z,100153.75
2022-11-18T07:24:19.510Z,100161.72
2022-11-18T07:26:46.494Z,100166.53
2022-11-18T07:29:13.033Z,100166.22
2022-11-18T07:31:40.084Z,100163.72
2022-11-18T07:34:07.487Z,100166.22
2022-11-18T07:36:36.155Z,100177.31
2022-11-18T07:39:05.031Z,100180.66
2022-11-18T07:41:32.691Z,100187.94
2022-11-18T07:44:01.604Z,100187.13
2022-11-18T07:46:34.587Z,100202.25
2022-11-18T07:49:03.724Z,100207.41
2022-11-18T07:51:34.432Z,100206.25
2022-11-18T07:54:01.699Z,100202.09
2022-11-18T07:56:28.720Z,100212.88
2022-11-18T07:58:56.483Z,100214.56
2022-11-18T08:01:25.855Z,100215.06
2022-11-18T08:03:52.437Z,100218.72
2022-11-18T08:06:19.931Z,100224.50
2022-11-18T08:08:47.487Z,100222.84
2022-11-18T08:11:22.602Z,100229.16
2022-11-18T08:13:50.102Z,100237.97
2022-11-18T08:16:20.547Z,100241.63
2022-11-18T08:18:47.785Z,100239.13
2022-11-18T08:21:18.184Z,100236.78
2022-11-18T08:23:50.100Z,100239.44
2022-11-18T08:26:16.861Z,100243.75
2022-11-18T08:28:43.969Z,100235.13
2022-11-18T08:31:12.327Z,100240.75
2022-11-18T08:33:39.295Z,100252.38
2022-11-18T08:36:11.431Z,100258.34
2022-11-18T08:38:37.978Z,100250.88
2022-11-18T08:41:06.240Z,100261.69
2022-11-18T08:43:36.093Z,100265.00
2022-11-18T08:46:02.796Z,100258.03
2022-11-18T08:48:29.326Z,100264.53
2022-11-18T08:50:58.409Z,100266.84
2022-11-18T08:53:25.246Z,100272.53
2022-11-18T08:55:57.394Z,100275.03
2022-11-18T08:58:25.963Z,100273.19
2022-11-18T09:00:52.730Z,100277.53
2022-11-18T09:03:19.820Z,100280.50
2022-11-18T09:05:47.624Z,100278.00
2022-11-18T09:08:15.659Z,100291.97
2022-11-18T09:10:42.376Z,100288.63
2022-11-18T09:13:39.929Z,100292.59
2022-11-18T09:15:59.197Z,100297.91
2022-11-18T09:18:26.400Z,100300.41
2022-11-18T09:21:02.009Z,100308.88
2022-11-18T09:23:29.025Z,100309.88
2022-11-18T09:26:00.562Z,100321.34
2022-11-18T09:28:27.648Z,100304.72
2022-11-18T09:30:55.072Z,100320.50
2022-11-18T09:33:22.261Z,100313.22
2022-11-18T09:35:49.058Z,100304.72
2022-11-18T09:38:16.019Z,100317.84
2022-11-18T09:40:56.585Z,100313.38
2022-11-18T09:43:48.092Z,100321.81
2022-11-18T09:46:47.560Z,100320.66
2022-11-18T09:49:30.396Z,100328.47
2022-11-18T09:52:01.817Z,100342.59
2022-11-18T09:54:33.775Z,100341.59
2022-11-18T09:57:01.006Z,100346.63
2022-11-18T09:59:30.991Z,100356.06
2022-11-18T10:02:11.450Z,100345.63
2022-11-18T10:04:38.040Z,100353.94
2022-11-18T10:07:16.314Z,100359.41
2022-11-18T10:09:44.880Z,100367.06
2022-11-18T10:12:29.450Z,100367.06
2022-11-18T10:15:21.362Z,100367.88
2022-11-18T10:18:26.418Z,100375.03
2022-11-18T10:21:18.137Z,100372.22
2022-11-18T10:23:56.604Z,100364.72
2022-11-18T10:26:54.716Z,100376.53
2022-11-18T10:29:22.026Z,100384.34
2022-11-18T10:32:12.129Z,100382.31
2022-11-18T10:34:57.036Z,100394.00
2022-11-18T10:38:00.170Z,100393.16
2022-11-18T10:40:26.175Z,100392.16
2022-11-18T10:42:53.308Z,100397.34
2022-11-18T10:45:22.597Z,100394.50
2022-11-18T10:48:17.924Z,100401.47
2022-11-18T10:50:51.927Z,100399.66
2022-11-18T10:53:37.055Z,100395.00
2022-11-18T10:56:07.418Z,100399.34
2022-11-18T10:58:42.783Z,100389.53
2022-11-18T11:01:24.395Z,100391.34
2022-11-18T11:04:02.405Z,100398.34
2022-11-18T11:06:32.441Z,100388.53
2022-11-18T11:09:08.546Z,100383.22
2022-11-18T11:11:40.022Z,100392.72
2022-11-18T11:14:23.613Z,100390.88
2022-11-18T11:16:59.359Z,100385.56
2022-11-18T11:19:31.674Z,100400.84
2022-11-18T11:21:58.215Z,100397.34
2022-11-18T11:24:27.164Z,100393.03
2022-11-18T11:30:20.085Z,100420.81
2022-11-18T11:33:05.312Z,100416.31
2022-11-18T11:35:50.433Z,100419.63
2022-11-18T11:38:42.322Z,100425.78
2022-11-18T11:41:22.003Z,100424.78
2022-11-18T11:43:54.962Z,100434.59
2022-11-18T11:47:12.304Z,100431.94
2022-11-18T11:50:03.525Z,100431.09
2022-11-18T11:52:53.008Z,100442.56
2022-11-18T11:55:32.037Z,100444.38
2022-11-18T11:58:02.037Z,100446.06
2022-11-18T12:00:33.712Z,100437.59
2022-11-18T12:03:23.850Z,100433.94
2022-11-18T12:05:51.382Z,100442.41
2022-11-18T12:08:25.087Z,100435.56
2022-11-18T12:11:15.799Z,100446.06
2022-11-18T12:13:56.396Z,100441.72
2022-11-18T12:16:45.698Z,100455.53
2022-11-18T12:19:16.657Z,100455.53
2022-11-18T12:21:46.686Z,100459.03
2022-11-18T12:24:36.956Z,100460.72
2022-11-18T12:27:09.780Z,100465.19
2022-11-18T12:29:44.625Z,100465.19
2022-11-18T12:32:29.280Z,100462.53
2022-11-18T12:35:01.902Z,100457.69
2022-11-18T12:37:28.865Z,100462.69
2022-11-18T12:39:55.763Z,100470.50
2022-11-18T12:43:04.614Z,100474.16
2022-11-18T12:45:40.324Z,100472.34
2022-11-18T12:48:30.261Z,100471.50
2022-11-18T12:51:02.607Z,100465.34
2022-11-18T12:54:26.273Z,100472.34
2022-11-18T12:56:54.712Z,100472.34
2022-11-18T12:59:29.786Z,100480.97
2022-11-18T13:02:07.485Z,100474.31
2022-11-18T13:04:34.269Z,100480.16
2022-11-18T13:07:02.443Z,100487.13
2022-11-18T13:09:32.945Z,100476.81
2022-11-18T13:12:08.721Z,100487.13
2022-11-18T13:14:53.853Z,100485.63
2022-11-18T13:17:42.353Z,100489.44
2022-11-18T13:20:29.321Z,100504.25
2022-11-18T13:23:19.916Z,100499.75
2022-11-18T13:25:48.216Z,100504.38
2022-11-18T13:28:36.145Z,100504.25
2022-11-18T13:31:27.403Z,100498.06
2022-11-18T13:33:54.042Z,100520.34
2022-11-18T13:36:24.729Z,100522.84
2022-11-18T13:38:59.327Z,100516.84
2022-11-18T13:41:34.199Z,100509.03
2022-11-18T13:44:31.537Z,100520.03
2022-11-18T13:47:41.227Z,100512.22
2022-11-18T13:50:14.879Z,100517.75
2022-11-18T13:53:19.201Z,100516.56
2022-11-18T13:56:07.210Z,100513.06
2022-11-18T13:59:02.741Z,100512.59
2022-11-18T14:01:32.384Z,100518.59
2022-11-18T14:04:15.182Z,100518.44
2022-11-18T14:06:42.276Z,100522.09
2022-11-18T14:09:31.667Z,100524.44
2022-11-18T14:12:00.348Z,100528.78
2022-11-18T14:14:41.955Z,100527.09
2022-11-18T14:17:28.064Z,100534.59
2022-11-18T14:19:57.636Z,100535.09
2022-11-18T14:22:27.394Z,100536.25
2022-11-18T14:25:20.214Z,100539.91
2022-11-18T14:27:49.472Z,100544.78
2022-11-18T14:30:56.494Z,100548.13
2022-11-18T14:33:33.519Z,100538.91
2022-11-18T14:36:11.963Z,100549.66
2022-11-18T14:41:48.105Z,100551.31
2022-11-18T14:44:15.337Z,100546.31
2022-11-18T14:46:44.738Z,100556.44
2022-11-18T14:49:15.248Z,100556.28
2022-11-18T14:51:41.894Z,100572.63
2022-11-18T14:54:12.872Z,100565.47
2022-11-18T14:56:39.707Z,100576.78
2022-11-18T14:59:06.262Z,100573.16
2022-11-18T15:01:33.385Z,100578.63
2022-11-18T15:04:00.000Z,100587.13
2022-11-18T15:06:28.509Z,100587.13
2022-11-18T15:08:55.114Z,100589.78
2022-11-18T15:11:21.744Z,100585.94
2022-11-18T15:13:49.056Z,100589.97
2022-11-18T15:16:18.450Z,100602.13
2022-11-18T15:18:47.329Z,100595.81
2022-11-18T15:21:15.109Z,100592.47
2022-11-18T15:23:41.930Z,100589.66
2022-11-18T15:26:23.621Z,100600.81
2022-11-18T15:28:52.477Z,100597.78
2022-11-18T15:31:19.282Z,100596.31
2022-11-18T15:33:46.574Z,100601.47
2022-11-18T15:36:26.904Z,100602.63
2022-11-18T15:38:56.549Z,100610.28
2022-11-18T15:41:28.040Z,100599.00
2022-11-18T15:43:56.531Z,100612.09
2022-11-18T15:46:25.060Z,100616.97
2022-11-18T15:48:53.732Z,100618.63
2022-11-18T15:51:21.757Z,100624.78
2022-11-18T15:53:48.366Z,100612.94
2022-11-18T15:56:21.765Z,100621.97
2022-11-18T15:59:03.001Z,100623.44
2022-11-18T16:01:32.879Z,100632.47
2022-11-18T16:04:00.525Z,100632.47
2022-11-18T16:06:27.558Z,100631.47
2022-11-18T16:08:59.582Z,100620.47
2022-11-18T16:11:46.944Z,100630.78
2022-11-18T16:14:16.568Z,100633.97
2022-11-18T16:16:44.980Z,100629.66
2022-11-18T16:19:13.999Z,100630.78
2022-11-18T16:21:42.956Z,100631.47
2022-11-18T16:24:12.584Z,100632.31
2022-11-18T16:26:39.316Z,100638.13
2022-11-18T16:29:07.259Z,100639.31
2022-11-18T16:31:40.526Z,100635.13
2022-11-18T16:34:10.516Z,100643.59
2022-11-18T16:36:38.426Z,100646.63
2022-11-18T16:39:11.199Z,100643.44
2022-11-18T16:41:38.831Z,100651.94
2022-11-18T16:44:08.055Z,100665.09
2022-11-18T16:46:37.234Z,100660.09
2022-11-18T16:49:04.897Z,100677.44
2022-11-18T16:51:34.921Z,100679.09
2022-11-18T16:54:04.786Z,100673.09
2022-11-18T16:56:33.781Z,100681.75
2022-11-18T16:59:05.592Z,100673.41
2022-11-18T17:01:33.564Z,100684.44
2022-11-18T17:04:03.547Z,100695.06
2022-11-18T17:06:32.068Z,100698.56
2022-11-18T17:09:00.137Z,100704.72
2022-11-18T17:11:27.262Z,100702.75
2022-11-18T17:13:58.045Z,100708.91
2022-11-18T17:16:26.289Z,100708.38
2022-11-18T17:18:57.660Z,100708.22
2022-11-18T17:21:25.672Z,100719.56
2022-11-18T17:23:52.254Z,100724.88
2022-11-18T17:26:21.359Z,100726.72
2022-11-18T17:28:49.086Z,100732.03
2022-11-18T17:31:19.076Z,100725.50
2022-11-18T17:33:47.087Z,100735.00
2022-11-18T17:36:16.069Z,100743.00
2022-11-18T17:38:44.862Z,100751.16
2022-11-18T17:41:33.707Z,100742.31
2022-11-18T17:44:01.990Z,100738.13
2022-11-18T17:46:34.838Z,100745.13
2022-11-18T17:49:07.450Z,100748.78
2022-11-18T17:51:34.053Z,100763.25
2022-11-18T17:54:01.149Z,100757.91
2022-11-18T17:56:27.764Z,100757.25
2022-11-18T17:58:54.785Z,100756.44
2022-11-18T18:01:23.094Z,100759.56
2022-11-18T18:03:50.918Z,100766.41
2022-11-18T18:06:18.161Z,100773.56
2022-11-18T18:08:44.705Z,100763.22
2022-11-18T18:11:16.196Z,100778.72
2022-11-18T18:14:01.914Z,100780.53
2022-11-18T18:16:30.497Z,100786.88
2022-11-18T18:18:59.177Z,100782.84
2022-11-18T18:21:26.716Z,100788.84
2022-11-18T18:23:53.310Z,100797.50
2022-11-18T18:26:19.983Z,100796.81
2022-11-18T18:28:46.531Z,100796.13
2022-11-18T18:31:16.797Z,100797.97
2022-11-18T18:33:44.432Z,100797.97
2022-11-18T18:36:13.032Z,100797.44
2022-11-18T18:38:40.939Z,100807.25
2022-11-18T18:41:16.351Z,100797.38
2022-11-18T18:43:43.074Z,100807.41
2022-11-18T18:46:31.004Z,100811.72
2022-11-18T18:49:14.839Z,100817.06
2022-11-18T18:51:43.466Z,100827.88
2022-11-18T18:54:11.905Z,100829.53
2022-11-18T18:56:38.953Z,100836.53
2022-11-18T18:59:05.834Z,100834.84
2022-11-18T19:01:33.638Z,100834.84
2022-11-18T19:04:03.123Z,100838.00
2022-11-18T19:06:53.566Z,100843.03
2022-11-18T19:09:19.169Z,100837.84
2022-11-18T19:12:04.377Z,100841.34
2022-11-18T19:14:33.755Z,100848.66
2022-11-18T19:17:06.369Z,100854.97
2022-11-18T19:19:54.727Z,100860.28
2022-11-18T19:22:21.846Z,100863.09
2022-11-18T19:24:50.529Z,100865.06
2022-11-18T19:27:19.092Z,100865.91
2022-11-18T19:29:45.675Z,100847.91
2022-11-18T19:32:12.485Z,100866.88
2022-11-18T19:34:39.153Z,100871.38
2022-11-18T19:37:05.684Z,100867.88
2022-11-18T19:39:32.256Z,100872.34
2022-11-18T19:41:59.368Z,100875.34
2022-11-18T19:44:26.533Z,100884.97
2022-11-18T19:46:53.080Z,100877.47
2022-11-18T19:49:19.862Z,100893.97
2022-11-18T19:51:47.332Z,100893.28
2022-11-18T19:54:13.888Z,100899.44
2022-11-18T19:56:40.568Z,100914.59
2022-11-18T19:59:07.122Z,100912.06
2022-11-18T20:01:33.804Z,100914.88
2022-11-18T20:04:05.670Z,100922.88
2022-11-18T20:06:34.428Z,100926.34
2022-11-18T20:09:01.475Z,100927.34
2022-11-18T20:11:28.167Z,100911.97
2022-11-18T20:13:54.753Z,100933.81
2022-11-18T20:16:24.687Z,100933.81
2022-11-18T20:18:59.925Z,100937.44
2022-11-18T20:21:29.832Z,100933.94
2022-11-18T20:24:04.660Z,100933.44
2022-11-18T20:26:35.333Z,100942.91
2022-11-18T20:29:02.321Z,100941.56
2022-11-18T20:31:28.920Z,100953.69
2022-11-18T20:34:09.234Z,100955.72
2022-11-18T20:36:36.484Z,100961.88
2022-11-18T20:39:07.088Z,100955.16
2022-11-18T20:41:34.688Z,100963.00
2022-11-18T20:44:01.680Z,100956.00
2022-11-18T20:46:28.403Z,100966.50
2022-11-18T20:48:55.670Z,100973.63
2022-11-18T20:51:24.816Z,100975.47
2022-11-18T20:53:53.092Z,100971.25
2022-11-18T20:56:22.860Z,100968.88
2022-11-18T20:58:49.438Z,100991.72
2022-11-18T21:01:18.804Z,100988.22
2022-11-18T21:03:54.472Z,100980.50
2022-11-18T21:06:26.753Z,100984.00
2022-11-18T21:09:02.460Z,100991.00
2022-11-18T21:11:29.409Z,100984.97
2022-11-18T21:14:19.875Z,100986.66
2022-11-18T21:16:50.579Z,100976.06
2022-11-18T21:19:17.281Z,100988.63
2022-11-18T21:21:48.842Z,100995.75
2022-11-18T21:24:17.825Z,100988.25
2022-11-18T21:26:46.044Z,100999.41
2022-11-18T21:29:14.206Z,100996.22
2022-11-18T21:31:42.717Z,101015.53
2022-11-18T21:34:10.779Z,101011.06
2022-11-18T21:36:43.906Z,101006.16
2022-11-18T21:39:13.381Z,101017.66
2022-11-18T21:41:40.151Z,101019.31
2022-11-18T21:44:11.933Z,101028.16
2022-11-18T21:46:40.367Z,101029.97
2022-11-18T21:49:07.835Z,101037.09
2022-11-18T21:51:35.027Z,101021.44
2022-11-18T21:54:02.535Z,101033.75
2022-11-18T21:56:31.416Z,101041.03
2022-11-18T21:59:00.689Z,101036.69
2022-11-18T22:01:32.602Z,101052.50
2022-11-18T22:04:03.232Z,101046.50
2022-11-18T22:06:33.292Z,101065.13
2022-11-18T22:09:01.117Z,101057.13
2022-11-18T22:11:28.388Z,101059.94
2022-11-18T22:13:55.823Z,101058.44
2022-11-18T22:16:24.839Z,101057.59
2022-11-18T22:18:59.163Z,101064.59
2022-11-18T22:21:28.013Z,101056.75
2022-11-18T22:23:59.722Z,101062.22
2022-11-18T22:26:26.488Z,101063.19
2022-11-18T22:28:55.012Z,101061.53
2022-11-18T22:31:23.250Z,101065.31
2022-11-18T22:33:51.562Z,101066.44
2022-11-18T22:36:20.572Z,101072.88
2022-11-18T22:38:47.993Z,101068.69
2022-11-18T22:41:38.839Z,101060.16
2022-11-18T22:44:07.956Z,101069.25
2022-11-18T22:46:39.388Z,101057.78
2022-11-18T22:49:07.546Z,101071.22
2022-11-18T22:51:35.592Z,101063.69
2022-11-18T22:56:49.208Z,101082.44
2022-11-18T22:59:15.801Z,101082.59
2022-11-18T23:01:42.372Z,101065.81
2022-11-18T23:04:09.711Z,101088.19
2022-11-18T23:06:36.663Z,101091.81
2022-11-18T23:09:03.605Z,101087.75
2022-11-18T23:11:48.873Z,101092.94
2022-11-18T23:14:15.515Z,101100.22
2022-11-18T23:16:43.201Z,101088.91
2022-11-18T23:19:14.138Z,101104.00
2022-11-18T23:21:42.367Z,101106.81
2022-11-18T23:24:16.592Z,101104.44
2022-11-18T23:26:43.787Z,101109.03
2022-11-18T23:29:11.836Z,101122.34
2022-11-18T23:31:44.975Z,101114.81
2022-11-18T23:34:13.063Z,101126.25
2022-11-18T23:36:40.888Z,101130.75
2022-11-18T23:39:08.180Z,101122.34
2022-11-18T23:41:35.385Z,101130.88
2022-11-18T23:44:02.729Z,101132.69
2022-11-18T23:46:29.571Z,101133.69
2022-11-18T23:48:56.712Z,101133.81
2022-11-18T23:51:25.212Z,101135.06
2022-11-18T23:53:55.057Z,101137.72
2022-11-18T23:56:24.135Z,101140.38
2022-11-18T23:58:53.105Z,101142.19
